sensor_id;sensor_type;location;lat;lon;timestamp;P1;durP1;ratioP1;P2;durP2;ratioP2
51614;SDS011;37695;52.960;6.188;2023-07-02T00:00:07;18.10;;;8.40;;
51614;SDS011;37695;52.960;6.188;2023-07-02T00:02:33;20.42;;;8.18;;
51614;SDS011;37695;52.960;6.188;2023-07-02T00:04:59;18.38;;;8.40;;
51614;SDS011;37695;52.960;6.188;2023-07-02T00:07:25;18.27;;;8.02;;
51614;SDS011;37695;52.960;6.188;2023-07-02T00:09:53;27.98;;;8.45;;
51614;SDS011;37695;52.960;6.188;2023-07-02T00:12:19;18.48;;;8.90;;
51614;SDS011;37695;52.960;6.188;2023-07-02T00:14:45;25.15;;;9.10;;
51614;SDS011;37695;52.960;6.188;2023-07-02T00:17:10;16.83;;;7.55;;
51614;SDS011;37695;52.960;6.188;2023-07-02T00:19:37;14.77;;;7.90;;
51614;SDS011;37695;52.960;6.188;2023-07-02T00:22:06;17.40;;;8.57;;
51614;SDS011;37695;52.960;6.188;2023-07-02T00:24:35;16.27;;;7.20;;
51614;SDS011;37695;52.960;6.188;2023-07-02T00:27:02;20.45;;;8.63;;
51614;SDS011;37695;52.960;6.188;2023-07-02T00:29:27;19.10;;;9.02;;
51614;SDS011;37695;52.960;6.188;2023-07-02T00:31:53;16.40;;;8.48;;
51614;SDS011;37695;52.960;6.188;2023-07-02T00:34:18;20.10;;;8.05;;
51614;SDS011;37695;52.960;6.188;2023-07-02T00:36:44;12.63;;;7.70;;
51614;SDS011;37695;52.960;6.188;2023-07-02T00:39:10;22.65;;;9.15;;
51614;SDS011;37695;52.960;6.188;2023-07-02T00:41:41;18.92;;;8.60;;
51614;SDS011;37695;52.960;6.188;2023-07-02T00:44:07;19.05;;;8.18;;
51614;SDS011;37695;52.960;6.188;2023-07-02T00:46:35;18.75;;;6.85;;
51614;SDS011;37695;52.960;6.188;2023-07-02T00:49:01;17.17;;;8.52;;
51614;SDS011;37695;52.960;6.188;2023-07-02T00:51:29;20.95;;;8.07;;
51614;SDS011;37695;52.960;6.188;2023-07-02T00:53:56;21.50;;;8.63;;
51614;SDS011;37695;52.960;6.188;2023-07-02T00:56:23;16.77;;;7.97;;
51614;SDS011;37695;52.960;6.188;2023-07-02T00:58:51;20.17;;;7.85;;
51614;SDS011;37695;52.960;6.188;2023-07-02T01:01:19;18.25;;;8.43;;
51614;SDS011;37695;52.960;6.188;2023-07-02T01:06:18;20.45;;;7.38;;
51614;SDS011;37695;52.960;6.188;2023-07-02T01:08:50;24.58;;;9.13;;
51614;SDS011;37695;52.960;6.188;2023-07-02T01:11:17;21.60;;;9.00;;
51614;SDS011;37695;52.960;6.188;2023-07-02T01:13:43;19.35;;;7.60;;
51614;SDS011;37695;52.960;6.188;2023-07-02T01:16:09;20.00;;;8.50;;
51614;SDS011;37695;52.960;6.188;2023-07-02T01:18:35;18.92;;;8.40;;
51614;SDS011;37695;52.960;6.188;2023-07-02T01:21:03;23.83;;;9.05;;
51614;SDS011;37695;52.960;6.188;2023-07-02T01:23:31;18.90;;;7.75;;
51614;SDS011;37695;52.960;6.188;2023-07-02T01:25:58;19.08;;;8.77;;
51614;SDS011;37695;52.960;6.188;2023-07-02T01:28:25;20.08;;;9.35;;
51614;SDS011;37695;52.960;6.188;2023-07-02T01:30:52;19.92;;;8.25;;
51614;SDS011;37695;52.960;6.188;2023-07-02T01:33:18;22.15;;;8.63;;
51614;SDS011;37695;52.960;6.188;2023-07-02T01:35:44;19.42;;;8.05;;
51614;SDS011;37695;52.960;6.188;2023-07-02T01:38:09;20.67;;;9.55;;
51614;SDS011;37695;52.960;6.188;2023-07-02T01:40:35;22.38;;;10.15;;
51614;SDS011;37695;52.960;6.188;2023-07-02T01:43:00;17.27;;;7.45;;
51614;SDS011;37695;52.960;6.188;2023-07-02T01:45:26;19.90;;;8.27;;
51614;SDS011;37695;52.960;6.188;2023-07-02T01:47:51;15.20;;;8.02;;
51614;SDS011;37695;52.960;6.188;2023-07-02T01:50:17;22.55;;;8.98;;
51614;SDS011;37695;52.960;6.188;2023-07-02T01:52:42;20.23;;;8.85;;
51614;SDS011;37695;52.960;6.188;2023-07-02T01:55:08;23.60;;;8.93;;
51614;SDS011;37695;52.960;6.188;2023-07-02T01:57:34;22.92;;;9.13;;
51614;SDS011;37695;52.960;6.188;2023-07-02T01:59:59;21.15;;;8.85;;
51614;SDS011;37695;52.960;6.188;2023-07-02T02:02:25;17.98;;;8.95;;
51614;SDS011;37695;52.960;6.188;2023-07-02T02:04:50;22.98;;;9.60;;
51614;SDS011;37695;52.960;6.188;2023-07-02T02:07:16;21.90;;;8.85;;
51614;SDS011;37695;52.960;6.188;2023-07-02T02:09:41;21.75;;;8.50;;
51614;SDS011;37695;52.960;6.188;2023-07-02T02:12:07;19.35;;;8.50;;
51614;SDS011;37695;52.960;6.188;2023-07-02T02:14:32;21.35;;;8.68;;
51614;SDS011;37695;52.960;6.188;2023-07-02T02:16:58;18.63;;;9.20;;
51614;SDS011;37695;52.960;6.188;2023-07-02T02:19:24;20.67;;;8.50;;
51614;SDS011;37695;52.960;6.188;2023-07-02T02:21:49;23.23;;;9.60;;
51614;SDS011;37695;52.960;6.188;2023-07-02T02:24:15;24.88;;;8.88;;
51614;SDS011;37695;52.960;6.188;2023-07-02T02:26:41;22.30;;;8.45;;
51614;SDS011;37695;52.960;6.188;2023-07-02T02:29:07;22.70;;;8.13;;
51614;SDS011;37695;52.960;6.188;2023-07-02T02:31:33;20.35;;;9.30;;
51614;SDS011;37695;52.960;6.188;2023-07-02T02:33:58;27.25;;;10.13;;
51614;SDS011;37695;52.960;6.188;2023-07-02T02:36:24;21.75;;;9.07;;
51614;SDS011;37695;52.960;6.188;2023-07-02T02:38:50;17.05;;;8.65;;
51614;SDS011;37695;52.960;6.188;2023-07-02T02:41:16;17.50;;;8.95;;
51614;SDS011;37695;52.960;6.188;2023-07-02T02:43:42;25.13;;;9.13;;
51614;SDS011;37695;52.960;6.188;2023-07-02T02:46:08;18.77;;;8.73;;
51614;SDS011;37695;52.960;6.188;2023-07-02T02:48:34;23.35;;;8.77;;
51614;SDS011;37695;52.960;6.188;2023-07-02T02:51:00;18.05;;;8.18;;
51614;SDS011;37695;52.960;6.188;2023-07-02T02:53:25;23.27;;;9.55;;
51614;SDS011;37695;52.960;6.188;2023-07-02T02:55:51;24.90;;;9.63;;
51614;SDS011;37695;52.960;6.188;2023-07-02T02:58:16;15.70;;;7.65;;
51614;SDS011;37695;52.960;6.188;2023-07-02T03:00:42;19.85;;;9.10;;
51614;SDS011;37695;52.960;6.188;2023-07-02T03:03:10;22.70;;;8.93;;
51614;SDS011;37695;52.960;6.188;2023-07-02T03:05:37;17.83;;;8.27;;
51614;SDS011;37695;52.960;6.188;2023-07-02T03:08:03;20.00;;;9.15;;
51614;SDS011;37695;52.960;6.188;2023-07-02T03:10:29;21.13;;;8.48;;
51614;SDS011;37695;52.960;6.188;2023-07-02T03:12:54;20.15;;;9.90;;
51614;SDS011;37695;52.960;6.188;2023-07-02T03:15:20;25.83;;;9.82;;
51614;SDS011;37695;52.960;6.188;2023-07-02T03:17:45;18.00;;;8.52;;
51614;SDS011;37695;52.960;6.188;2023-07-02T03:20:11;18.17;;;8.70;;
51614;SDS011;37695;52.960;6.188;2023-07-02T03:22:36;17.10;;;8.25;;
51614;SDS011;37695;52.960;6.188;2023-07-02T03:25:02;19.48;;;9.20;;
51614;SDS011;37695;52.960;6.188;2023-07-02T03:27:28;24.55;;;8.82;;
51614;SDS011;37695;52.960;6.188;2023-07-02T03:29:53;17.67;;;7.65;;
51614;SDS011;37695;52.960;6.188;2023-07-02T03:32:19;20.10;;;9.00;;
51614;SDS011;37695;52.960;6.188;2023-07-02T03:34:44;22.38;;;9.07;;
51614;SDS011;37695;52.960;6.188;2023-07-02T03:37:10;17.90;;;9.05;;
51614;SDS011;37695;52.960;6.188;2023-07-02T03:39:35;20.08;;;8.60;;
51614;SDS011;37695;52.960;6.188;2023-07-02T03:42:01;18.17;;;8.60;;
51614;SDS011;37695;52.960;6.188;2023-07-02T03:44:27;17.00;;;7.22;;
51614;SDS011;37695;52.960;6.188;2023-07-02T03:46:52;18.30;;;8.32;;
51614;SDS011;37695;52.960;6.188;2023-07-02T03:49:18;20.98;;;8.13;;
51614;SDS011;37695;52.960;6.188;2023-07-02T03:51:44;21.23;;;8.40;;
51614;SDS011;37695;52.960;6.188;2023-07-02T03:54:09;20.88;;;9.40;;
51614;SDS011;37695;52.960;6.188;2023-07-02T03:56:35;22.40;;;9.30;;
51614;SDS011;37695;52.960;6.188;2023-07-02T03:59:00;21.92;;;8.10;;
51614;SDS011;37695;52.960;6.188;2023-07-02T04:01:26;20.83;;;8.18;;
51614;SDS011;37695;52.960;6.188;2023-07-02T04:03:52;19.60;;;7.53;;
51614;SDS011;37695;52.960;6.188;2023-07-02T04:06:18;17.70;;;7.65;;
51614;SDS011;37695;52.960;6.188;2023-07-02T04:08:44;20.77;;;8.98;;
51614;SDS011;37695;52.960;6.188;2023-07-02T04:11:10;21.17;;;8.77;;
51614;SDS011;37695;52.960;6.188;2023-07-02T04:13:36;18.75;;;8.98;;
51614;SDS011;37695;52.960;6.188;2023-07-02T04:16:02;22.63;;;9.02;;
51614;SDS011;37695;52.960;6.188;2023-07-02T04:18:28;26.67;;;8.75;;
51614;SDS011;37695;52.960;6.188;2023-07-02T04:20:57;22.33;;;8.38;;
51614;SDS011;37695;52.960;6.188;2023-07-02T04:23:23;20.75;;;8.15;;
51614;SDS011;37695;52.960;6.188;2023-07-02T04:25:49;21.48;;;7.95;;
51614;SDS011;37695;52.960;6.188;2023-07-02T04:28:15;20.88;;;8.75;;
51614;SDS011;37695;52.960;6.188;2023-07-02T04:30:40;21.42;;;8.65;;
51614;SDS011;37695;52.960;6.188;2023-07-02T04:33:07;18.48;;;8.45;;
51614;SDS011;37695;52.960;6.188;2023-07-02T04:35:33;21.02;;;7.80;;
51614;SDS011;37695;52.960;6.188;2023-07-02T04:37:59;22.80;;;8.70;;
51614;SDS011;37695;52.960;6.188;2023-07-02T04:40:25;22.75;;;9.35;;
51614;SDS011;37695;52.960;6.188;2023-07-02T04:42:51;22.00;;;8.43;;
51614;SDS011;37695;52.960;6.188;2023-07-02T04:45:22;16.73;;;7.45;;
51614;SDS011;37695;52.960;6.188;2023-07-02T04:47:49;18.70;;;7.22;;
51614;SDS011;37695;52.960;6.188;2023-07-02T04:50:16;19.45;;;7.57;;
51614;SDS011;37695;52.960;6.188;2023-07-02T04:52:42;21.67;;;8.65;;
51614;SDS011;37695;52.960;6.188;2023-07-02T04:55:07;20.70;;;7.53;;
51614;SDS011;37695;52.960;6.188;2023-07-02T04:57:33;20.08;;;8.00;;
51614;SDS011;37695;52.960;6.188;2023-07-02T04:59:59;20.60;;;9.07;;
51614;SDS011;37695;52.960;6.188;2023-07-02T05:02:24;18.25;;;8.60;;
51614;SDS011;37695;52.960;6.188;2023-07-02T05:04:50;24.80;;;8.55;;
51614;SDS011;37695;52.960;6.188;2023-07-02T05:07:16;15.43;;;7.57;;
51614;SDS011;37695;52.960;6.188;2023-07-02T05:09:41;19.10;;;7.75;;
51614;SDS011;37695;52.960;6.188;2023-07-02T05:12:07;17.83;;;8.27;;
51614;SDS011;37695;52.960;6.188;2023-07-02T05:14:33;18.00;;;8.60;;
51614;SDS011;37695;52.960;6.188;2023-07-02T05:16:58;17.95;;;7.80;;
51614;SDS011;37695;52.960;6.188;2023-07-02T05:19:24;16.63;;;6.88;;
51614;SDS011;37695;52.960;6.188;2023-07-02T05:21:50;17.67;;;7.18;;
51614;SDS011;37695;52.960;6.188;2023-07-02T05:24:15;17.25;;;7.00;;
51614;SDS011;37695;52.960;6.188;2023-07-02T05:26:41;15.32;;;6.55;;
51614;SDS011;37695;52.960;6.188;2023-07-02T05:29:06;14.90;;;7.53;;
51614;SDS011;37695;52.960;6.188;2023-07-02T05:31:32;15.55;;;6.57;;
51614;SDS011;37695;52.960;6.188;2023-07-02T05:33:59;16.35;;;6.47;;
51614;SDS011;37695;52.960;6.188;2023-07-02T05:36:24;14.35;;;6.78;;
51614;SDS011;37695;52.960;6.188;2023-07-02T05:38:50;16.38;;;6.60;;
51614;SDS011;37695;52.960;6.188;2023-07-02T05:41:19;13.80;;;7.13;;
51614;SDS011;37695;52.960;6.188;2023-07-02T05:43:45;15.50;;;7.07;;
51614;SDS011;37695;52.960;6.188;2023-07-02T05:46:11;16.30;;;7.03;;
51614;SDS011;37695;52.960;6.188;2023-07-02T05:48:43;13.93;;;6.60;;
51614;SDS011;37695;52.960;6.188;2023-07-02T05:51:08;19.08;;;7.13;;
51614;SDS011;37695;52.960;6.188;2023-07-02T05:53:34;13.13;;;6.35;;
51614;SDS011;37695;52.960;6.188;2023-07-02T05:56:01;14.90;;;6.18;;
51614;SDS011;37695;52.960;6.188;2023-07-02T05:58:27;14.00;;;6.28;;
51614;SDS011;37695;52.960;6.188;2023-07-02T06:00:54;17.02;;;7.05;;
51614;SDS011;37695;52.960;6.188;2023-07-02T06:03:20;17.20;;;6.07;;
51614;SDS011;37695;52.960;6.188;2023-07-02T06:05:49;19.60;;;6.20;;
51614;SDS011;37695;52.960;6.188;2023-07-02T06:08:15;14.07;;;6.10;;
51614;SDS011;37695;52.960;6.188;2023-07-02T06:10:42;13.73;;;6.00;;
51614;SDS011;37695;52.960;6.188;2023-07-02T06:13:08;18.70;;;6.78;;
51614;SDS011;37695;52.960;6.188;2023-07-02T06:15:34;15.38;;;6.65;;
51614;SDS011;37695;52.960;6.188;2023-07-02T06:18:00;15.85;;;6.75;;
51614;SDS011;37695;52.960;6.188;2023-07-02T06:20:25;18.10;;;7.10;;
51614;SDS011;37695;52.960;6.188;2023-07-02T06:22:51;17.23;;;6.57;;
51614;SDS011;37695;52.960;6.188;2023-07-02T06:25:16;14.90;;;6.13;;
51614;SDS011;37695;52.960;6.188;2023-07-02T06:27:42;15.90;;;6.85;;
51614;SDS011;37695;52.960;6.188;2023-07-02T06:30:08;20.02;;;7.13;;
51614;SDS011;37695;52.960;6.188;2023-07-02T06:32:33;16.25;;;6.18;;
51614;SDS011;37695;52.960;6.188;2023-07-02T06:34:59;17.63;;;7.30;;
51614;SDS011;37695;52.960;6.188;2023-07-02T06:37:24;13.68;;;6.22;;
51614;SDS011;37695;52.960;6.188;2023-07-02T06:39:50;15.32;;;6.05;;
51614;SDS011;37695;52.960;6.188;2023-07-02T06:42:15;14.32;;;5.75;;
51614;SDS011;37695;52.960;6.188;2023-07-02T06:44:41;16.48;;;5.75;;
51614;SDS011;37695;52.960;6.188;2023-07-02T06:47:07;12.60;;;5.43;;
51614;SDS011;37695;52.960;6.188;2023-07-02T06:49:32;11.73;;;5.30;;
51614;SDS011;37695;52.960;6.188;2023-07-02T06:51:58;14.85;;;4.88;;
51614;SDS011;37695;52.960;6.188;2023-07-02T06:54:25;16.02;;;4.93;;
51614;SDS011;37695;52.960;6.188;2023-07-02T06:56:51;13.32;;;5.40;;
51614;SDS011;37695;52.960;6.188;2023-07-02T06:59:20;12.02;;;4.53;;
51614;SDS011;37695;52.960;6.188;2023-07-02T07:01:47;11.93;;;4.80;;
51614;SDS011;37695;52.960;6.188;2023-07-02T07:04:14;11.68;;;4.95;;
51614;SDS011;37695;52.960;6.188;2023-07-02T07:06:39;11.70;;;4.75;;
51614;SDS011;37695;52.960;6.188;2023-07-02T07:09:05;10.57;;;4.53;;
51614;SDS011;37695;52.960;6.188;2023-07-02T07:11:30;14.57;;;4.47;;
51614;SDS011;37695;52.960;6.188;2023-07-02T07:13:56;12.32;;;5.20;;
51614;SDS011;37695;52.960;6.188;2023-07-02T07:16:21;15.00;;;4.75;;
51614;SDS011;37695;52.960;6.188;2023-07-02T07:18:47;9.50;;;4.38;;
51614;SDS011;37695;52.960;6.188;2023-07-02T07:21:13;11.88;;;4.63;;
51614;SDS011;37695;52.960;6.188;2023-07-02T07:23:39;13.25;;;4.53;;
51614;SDS011;37695;52.960;6.188;2023-07-02T07:26:05;11.95;;;4.65;;
51614;SDS011;37695;52.960;6.188;2023-07-02T07:28:30;10.93;;;4.20;;
51614;SDS011;37695;52.960;6.188;2023-07-02T07:30:56;9.43;;;4.43;;
51614;SDS011;37695;52.960;6.188;2023-07-02T07:33:21;12.07;;;4.40;;
51614;SDS011;37695;52.960;6.188;2023-07-02T07:35:47;12.38;;;4.75;;
51614;SDS011;37695;52.960;6.188;2023-07-02T07:38:13;14.77;;;5.18;;
51614;SDS011;37695;52.960;6.188;2023-07-02T07:40:43;15.45;;;4.60;;
51614;SDS011;37695;52.960;6.188;2023-07-02T07:43:09;18.48;;;4.93;;
51614;SDS011;37695;52.960;6.188;2023-07-02T07:45:34;12.20;;;4.90;;
51614;SDS011;37695;52.960;6.188;2023-07-02T07:48:00;15.18;;;4.97;;
51614;SDS011;37695;52.960;6.188;2023-07-02T07:50:26;12.30;;;4.85;;
51614;SDS011;37695;52.960;6.188;2023-07-02T07:52:52;13.68;;;5.13;;
51614;SDS011;37695;52.960;6.188;2023-07-02T07:55:18;14.40;;;5.03;;
51614;SDS011;37695;52.960;6.188;2023-07-02T07:57:43;10.77;;;4.13;;
51614;SDS011;37695;52.960;6.188;2023-07-02T08:00:09;11.65;;;4.70;;
51614;SDS011;37695;52.960;6.188;2023-07-02T08:02:36;12.90;;;4.70;;
51614;SDS011;37695;52.960;6.188;2023-07-02T08:05:01;12.30;;;5.22;;
51614;SDS011;37695;52.960;6.188;2023-07-02T08:07:28;10.48;;;5.20;;
51614;SDS011;37695;52.960;6.188;2023-07-02T08:09:53;11.95;;;5.05;;
51614;SDS011;37695;52.960;6.188;2023-07-02T08:12:19;12.55;;;5.10;;
51614;SDS011;37695;52.960;6.188;2023-07-02T08:14:44;11.57;;;5.18;;
51614;SDS011;37695;52.960;6.188;2023-07-02T08:17:10;12.45;;;4.78;;
51614;SDS011;37695;52.960;6.188;2023-07-02T08:19:35;14.95;;;5.28;;
51614;SDS011;37695;52.960;6.188;2023-07-02T08:22:01;15.52;;;5.25;;
51614;SDS011;37695;52.960;6.188;2023-07-02T08:24:27;9.30;;;4.60;;
51614;SDS011;37695;52.960;6.188;2023-07-02T08:26:53;11.27;;;4.72;;
51614;SDS011;37695;52.960;6.188;2023-07-02T08:29:18;13.65;;;5.15;;
51614;SDS011;37695;52.960;6.188;2023-07-02T08:31:44;11.32;;;5.03;;
51614;SDS011;37695;52.960;6.188;2023-07-02T08:34:09;10.38;;;5.32;;
51614;SDS011;37695;52.960;6.188;2023-07-02T08:36:35;15.30;;;6.07;;
51614;SDS011;37695;52.960;6.188;2023-07-02T08:39:00;15.95;;;5.95;;
51614;SDS011;37695;52.960;6.188;2023-07-02T08:41:26;12.20;;;5.50;;
51614;SDS011;37695;52.960;6.188;2023-07-02T08:43:54;11.43;;;5.45;;
51614;SDS011;37695;52.960;6.188;2023-07-02T08:46:20;13.73;;;5.43;;
51614;SDS011;37695;52.960;6.188;2023-07-02T08:48:46;15.13;;;5.75;;
51614;SDS011;37695;52.960;6.188;2023-07-02T08:51:12;18.50;;;6.28;;
51614;SDS011;37695;52.960;6.188;2023-07-02T08:53:38;13.30;;;5.43;;
51614;SDS011;37695;52.960;6.188;2023-07-02T08:56:03;13.15;;;5.88;;
51614;SDS011;37695;52.960;6.188;2023-07-02T08:58:29;13.63;;;6.07;;
51614;SDS011;37695;52.960;6.188;2023-07-02T09:03:32;14.75;;;5.85;;
51614;SDS011;37695;52.960;6.188;2023-07-02T09:05:57;13.75;;;5.75;;
51614;SDS011;37695;52.960;6.188;2023-07-02T09:08:26;12.40;;;4.78;;
51614;SDS011;37695;52.960;6.188;2023-07-02T09:10:53;9.93;;;4.63;;
51614;SDS011;37695;52.960;6.188;2023-07-02T09:13:19;12.57;;;4.63;;
51614;SDS011;37695;52.960;6.188;2023-07-02T09:15:45;12.07;;;4.57;;
51614;SDS011;37695;52.960;6.188;2023-07-02T09:18:17;9.93;;;4.38;;
51614;SDS011;37695;52.960;6.188;2023-07-02T09:20:44;12.48;;;4.50;;
51614;SDS011;37695;52.960;6.188;2023-07-02T09:23:10;12.25;;;4.90;;
51614;SDS011;37695;52.960;6.188;2023-07-02T09:25:36;10.90;;;4.43;;
51614;SDS011;37695;52.960;6.188;2023-07-02T09:28:17;13.45;;;5.07;;
51614;SDS011;37695;52.960;6.188;2023-07-02T09:33:16;9.63;;;4.25;;
51614;SDS011;37695;52.960;6.188;2023-07-02T09:35:42;9.52;;;4.03;;
51614;SDS011;37695;52.960;6.188;2023-07-02T09:38:09;10.43;;;4.10;;
51614;SDS011;37695;52.960;6.188;2023-07-02T09:40:36;17.00;;;5.10;;
51614;SDS011;37695;52.960;6.188;2023-07-02T09:45:36;10.05;;;4.15;;
51614;SDS011;37695;52.960;6.188;2023-07-02T09:48:01;13.95;;;4.85;;
51614;SDS011;37695;52.960;6.188;2023-07-02T09:50:28;12.68;;;5.25;;
51614;SDS011;37695;52.960;6.188;2023-07-02T09:52:55;13.68;;;5.07;;
51614;SDS011;37695;52.960;6.188;2023-07-02T09:55:21;9.75;;;3.92;;
51614;SDS011;37695;52.960;6.188;2023-07-02T09:57:47;7.88;;;3.88;;
51614;SDS011;37695;52.960;6.188;2023-07-02T10:00:13;7.22;;;3.88;;
51614;SDS011;37695;52.960;6.188;2023-07-02T10:02:39;11.15;;;3.83;;
51614;SDS011;37695;52.960;6.188;2023-07-02T10:05:05;9.85;;;3.35;;
51614;SDS011;37695;52.960;6.188;2023-07-02T10:07:31;8.73;;;3.30;;
51614;SDS011;37695;52.960;6.188;2023-07-02T10:09:58;15.25;;;4.00;;
51614;SDS011;37695;52.960;6.188;2023-07-02T10:12:25;8.65;;;3.58;;
51614;SDS011;37695;52.960;6.188;2023-07-02T10:14:52;11.45;;;3.60;;
51614;SDS011;37695;52.960;6.188;2023-07-02T10:17:27;10.38;;;3.60;;
51614;SDS011;37695;52.960;6.188;2023-07-02T10:20:03;7.85;;;3.67;;
51614;SDS011;37695;52.960;6.188;2023-07-02T10:22:48;13.30;;;4.30;;
51614;SDS011;37695;52.960;6.188;2023-07-02T10:25:24;10.50;;;4.47;;
51614;SDS011;37695;52.960;6.188;2023-07-02T10:27:51;10.20;;;4.10;;
51614;SDS011;37695;52.960;6.188;2023-07-02T10:30:17;8.10;;;4.03;;
51614;SDS011;37695;52.960;6.188;2023-07-02T10:32:43;11.75;;;4.53;;
51614;SDS011;37695;52.960;6.188;2023-07-02T10:35:15;10.63;;;4.65;;
51614;SDS011;37695;52.960;6.188;2023-07-02T10:37:42;11.20;;;4.00;;
51614;SDS011;37695;52.960;6.188;2023-07-02T10:40:08;11.70;;;4.53;;
51614;SDS011;37695;52.960;6.188;2023-07-02T10:42:44;11.57;;;4.63;;
51614;SDS011;37695;52.960;6.188;2023-07-02T10:45:13;10.55;;;4.43;;
51614;SDS011;37695;52.960;6.188;2023-07-02T10:47:39;11.90;;;4.55;;
51614;SDS011;37695;52.960;6.188;2023-07-02T10:50:20;12.27;;;4.75;;
51614;SDS011;37695;52.960;6.188;2023-07-02T10:52:47;17.88;;;5.38;;
51614;SDS011;37695;52.960;6.188;2023-07-02T10:55:22;11.95;;;4.15;;
51614;SDS011;37695;52.960;6.188;2023-07-02T10:57:48;11.57;;;3.72;;
51614;SDS011;37695;52.960;6.188;2023-07-02T11:00:18;8.43;;;3.80;;
51614;SDS011;37695;52.960;6.188;2023-07-02T11:02:44;10.45;;;3.80;;
51614;SDS011;37695;52.960;6.188;2023-07-02T11:05:10;12.32;;;4.20;;
51614;SDS011;37695;52.960;6.188;2023-07-02T11:07:43;9.70;;;3.83;;
51614;SDS011;37695;52.960;6.188;2023-07-02T11:10:09;9.43;;;4.45;;
51614;SDS011;37695;52.960;6.188;2023-07-02T11:12:41;9.30;;;3.80;;
51614;SDS011;37695;52.960;6.188;2023-07-02T11:15:10;10.23;;;3.83;;
51614;SDS011;37695;52.960;6.188;2023-07-02T11:17:38;7.75;;;3.30;;
51614;SDS011;37695;52.960;6.188;2023-07-02T11:20:10;12.07;;;4.13;;
51614;SDS011;37695;52.960;6.188;2023-07-02T11:22:38;9.63;;;3.65;;
51614;SDS011;37695;52.960;6.188;2023-07-02T11:25:11;8.68;;;3.80;;
51614;SDS011;37695;52.960;6.188;2023-07-02T11:27:37;8.77;;;3.47;;
51614;SDS011;37695;52.960;6.188;2023-07-02T11:30:03;9.40;;;3.78;;
51614;SDS011;37695;52.960;6.188;2023-07-02T11:32:29;10.95;;;4.88;;
51614;SDS011;37695;52.960;6.188;2023-07-02T11:34:55;7.80;;;3.65;;
51614;SDS011;37695;52.960;6.188;2023-07-02T11:37:21;7.38;;;3.08;;
51614;SDS011;37695;52.960;6.188;2023-07-02T11:39:47;8.27;;;3.63;;
51614;SDS011;37695;52.960;6.188;2023-07-02T11:42:12;8.32;;;3.20;;
51614;SDS011;37695;52.960;6.188;2023-07-02T11:44:38;7.38;;;3.10;;
51614;SDS011;37695;52.960;6.188;2023-07-02T11:47:04;6.60;;;3.08;;
51614;SDS011;37695;52.960;6.188;2023-07-02T11:49:30;8.38;;;2.95;;
51614;SDS011;37695;52.960;6.188;2023-07-02T11:51:56;12.40;;;3.22;;
51614;SDS011;37695;52.960;6.188;2023-07-02T11:54:21;7.57;;;2.92;;
51614;SDS011;37695;52.960;6.188;2023-07-02T11:56:47;8.35;;;3.15;;
51614;SDS011;37695;52.960;6.188;2023-07-02T11:59:13;10.43;;;3.22;;
51614;SDS011;37695;52.960;6.188;2023-07-02T12:01:38;9.32;;;3.60;;
51614;SDS011;37695;52.960;6.188;2023-07-02T12:04:04;6.93;;;3.38;;
51614;SDS011;37695;52.960;6.188;2023-07-02T12:06:31;7.78;;;3.05;;
51614;SDS011;37695;52.960;6.188;2023-07-02T12:08:56;8.63;;;3.42;;
51614;SDS011;37695;52.960;6.188;2023-07-02T12:11:22;22.73;;;3.95;;
51614;SDS011;37695;52.960;6.188;2023-07-02T12:13:47;9.68;;;3.05;;
51614;SDS011;37695;52.960;6.188;2023-07-02T12:16:13;8.65;;;3.70;;
51614;SDS011;37695;52.960;6.188;2023-07-02T12:18:38;7.07;;;3.50;;
51614;SDS011;37695;52.960;6.188;2023-07-02T12:21:04;11.70;;;4.43;;
51614;SDS011;37695;52.960;6.188;2023-07-02T12:23:30;8.82;;;3.40;;
51614;SDS011;37695;52.960;6.188;2023-07-02T12:25:55;11.05;;;4.22;;
51614;SDS011;37695;52.960;6.188;2023-07-02T12:28:21;10.02;;;4.15;;
51614;SDS011;37695;52.960;6.188;2023-07-02T12:30:46;12.70;;;4.07;;
51614;SDS011;37695;52.960;6.188;2023-07-02T12:33:12;10.63;;;4.00;;
51614;SDS011;37695;52.960;6.188;2023-07-02T12:35:38;9.88;;;4.25;;
51614;SDS011;37695;52.960;6.188;2023-07-02T12:38:03;11.32;;;4.45;;
51614;SDS011;37695;52.960;6.188;2023-07-02T12:40:29;9.48;;;4.20;;
51614;SDS011;37695;52.960;6.188;2023-07-02T12:42:54;11.18;;;5.60;;
51614;SDS011;37695;52.960;6.188;2023-07-02T12:45:21;10.32;;;4.68;;
51614;SDS011;37695;52.960;6.188;2023-07-02T12:47:47;8.45;;;4.63;;
51614;SDS011;37695;52.960;6.188;2023-07-02T12:50:13;11.77;;;5.18;;
51614;SDS011;37695;52.960;6.188;2023-07-02T12:52:38;11.50;;;5.10;;
51614;SDS011;37695;52.960;6.188;2023-07-02T12:55:04;10.77;;;5.00;;
51614;SDS011;37695;52.960;6.188;2023-07-02T12:57:30;11.38;;;5.75;;
51614;SDS011;37695;52.960;6.188;2023-07-02T12:59:56;10.63;;;5.18;;
51614;SDS011;37695;52.960;6.188;2023-07-02T13:02:22;10.50;;;4.97;;
51614;SDS011;37695;52.960;6.188;2023-07-02T13:04:48;10.88;;;5.50;;
51614;SDS011;37695;52.960;6.188;2023-07-02T13:07:14;9.00;;;5.18;;
51614;SDS011;37695;52.960;6.188;2023-07-02T13:09:40;11.98;;;5.18;;
51614;SDS011;37695;52.960;6.188;2023-07-02T13:12:07;11.10;;;5.10;;
51614;SDS011;37695;52.960;6.188;2023-07-02T13:14:33;9.70;;;4.57;;
51614;SDS011;37695;52.960;6.188;2023-07-02T13:16:59;13.98;;;5.80;;
51614;SDS011;37695;52.960;6.188;2023-07-02T13:19:25;9.15;;;5.10;;
51614;SDS011;37695;52.960;6.188;2023-07-02T13:21:51;11.63;;;5.10;;
51614;SDS011;37695;52.960;6.188;2023-07-02T13:24:16;8.48;;;4.57;;
51614;SDS011;37695;52.960;6.188;2023-07-02T13:26:42;16.40;;;5.50;;
51614;SDS011;37695;52.960;6.188;2023-07-02T13:29:07;15.82;;;5.93;;
51614;SDS011;37695;52.960;6.188;2023-07-02T13:31:33;11.98;;;5.72;;
51614;SDS011;37695;52.960;6.188;2023-07-02T13:33:58;12.30;;;5.53;;
51614;SDS011;37695;52.960;6.188;2023-07-02T13:36:24;13.77;;;5.38;;
51614;SDS011;37695;52.960;6.188;2023-07-02T13:38:49;11.05;;;5.47;;
51614;SDS011;37695;52.960;6.188;2023-07-02T13:41:15;10.82;;;5.25;;
51614;SDS011;37695;52.960;6.188;2023-07-02T13:43:41;17.10;;;5.80;;
51614;SDS011;37695;52.960;6.188;2023-07-02T13:46:06;10.77;;;5.43;;
51614;SDS011;37695;52.960;6.188;2023-07-02T13:48:32;13.20;;;4.40;;
51614;SDS011;37695;52.960;6.188;2023-07-02T13:50:57;11.90;;;5.43;;
51614;SDS011;37695;52.960;6.188;2023-07-02T13:53:23;10.65;;;5.68;;
51614;SDS011;37695;52.960;6.188;2023-07-02T13:55:49;14.30;;;5.25;;
51614;SDS011;37695;52.960;6.188;2023-07-02T13:58:14;9.50;;;5.30;;
51614;SDS011;37695;52.960;6.188;2023-07-02T14:00:40;12.55;;;5.47;;
51614;SDS011;37695;52.960;6.188;2023-07-02T14:03:05;11.27;;;5.10;;
51614;SDS011;37695;52.960;6.188;2023-07-02T14:05:31;13.85;;;5.20;;
51614;SDS011;37695;52.960;6.188;2023-07-02T14:07:57;11.48;;;5.60;;
51614;SDS011;37695;52.960;6.188;2023-07-02T14:10:23;12.35;;;5.45;;
51614;SDS011;37695;52.960;6.188;2023-07-02T14:12:48;10.50;;;5.57;;
51614;SDS011;37695;52.960;6.188;2023-07-02T14:15:14;10.27;;;5.13;;
51614;SDS011;37695;52.960;6.188;2023-07-02T14:17:40;14.55;;;5.68;;
51614;SDS011;37695;52.960;6.188;2023-07-02T14:20:07;9.38;;;5.00;;
51614;SDS011;37695;52.960;6.188;2023-07-02T14:22:33;10.93;;;4.82;;
51614;SDS011;37695;52.960;6.188;2023-07-02T14:24:59;11.30;;;5.22;;
51614;SDS011;37695;52.960;6.188;2023-07-02T14:27:25;13.65;;;4.90;;
51614;SDS011;37695;52.960;6.188;2023-07-02T14:29:50;10.55;;;5.03;;
51614;SDS011;37695;52.960;6.188;2023-07-02T14:32:16;12.20;;;5.18;;
51614;SDS011;37695;52.960;6.188;2023-07-02T14:34:42;12.13;;;5.40;;
51614;SDS011;37695;52.960;6.188;2023-07-02T14:37:07;12.00;;;5.35;;
51614;SDS011;37695;52.960;6.188;2023-07-02T14:39:33;9.13;;;4.65;;